Time;durP1;ratioP1;P1;durP2;ratioP2;P2;SDS_P1;SDS_P2;PMS_P1;PMS_P2;Temp;Humidity;BMP_temperature;BMP_pressure;BME280_temperature;BME280_humidity;BME280_pressure;Samples;Min_cycle;Max_cycle;Signal;HPM_P1;HPM_P2
2022/12/24 00:01:44;;;;;;;22.45;3.75;;;14.30;54.40;;;;;;4914826;28;20054;-48
2022/12/24 00:04:11;;;;;;;26.05;4.10;;;14.30;54.40;;;;;;4919160;28;22026;-45
2022/12/24 00:06:39;;;;;;;24.25;3.00;;;14.30;54.30;;;;;;4919566;28;20068;-48
2022/12/24 00:09:07;;;;;;;21.35;3.83;;;14.30;54.30;;;;;;4916321;28;20080;-48
2022/12/24 00:11:34;;;;;;;17.58;2.90;;;14.20;53.90;;;;;;4918153;28;20067;-44
2022/12/24 00:14:01;;;;;;;25.80;4.35;;;14.30;54.10;;;;;;4919738;28;20139;-46
2022/12/24 00:16:28;;;;;;;23.85;3.75;;;14.20;54.20;;;;;;4913610;28;20052;-47
2022/12/24 00:18:56;;;;;;;14.77;2.80;;;14.20;54.00;;;;;;4914017;28;20056;-48
2022/12/24 00:21:23;;;;;;;11.02;2.65;;;14.20;54.00;;;;;;4920776;28;20062;-48
2022/12/24 00:23:51;;;;;;;16.13;3.40;;;14.20;54.10;;;;;;4916514;28;20507;-44
2022/12/24 00:26:19;;;;;;;25.40;4.20;;;14.20;54.10;;;;;;4916869;28;20051;-44
2022/12/24 00:28:46;;;;;;;18.38;2.97;;;14.20;54.10;;;;;;4918385;28;20063;-47
2022/12/24 00:31:15;;;;;;;21.80;3.42;;;14.20;54.10;;;;;;4911527;28;20062;-46
2022/12/24 00:33:42;;;;;;;18.50;2.85;;;14.20;54.10;;;;;;4917537;28;20059;-44
2022/12/24 00:36:10;;;;;;;24.48;3.30;;;14.20;54.10;;;;;;4915487;28;20389;-46
2022/12/24 00:38:37;;;;;;;21.38;3.58;;;14.20;54.10;;;;;;4918381;28;20047;-44
2022/12/24 00:41:23;;;;;;;16.55;3.13;;;14.10;54.10;;;;;;4916631;28;20064;-47
2022/12/24 00:43:51;;;;;;;17.02;2.80;;;14.10;54.10;;;;;;4915075;28;20074;-43
2022/12/24 00:46:18;;;;;;;21.52;2.90;;;14.10;54.20;;;;;;4917767;28;20504;-45
2022/12/24 00:48:45;;;;;;;19.90;3.35;;;14.10;54.20;;;;;;4915872;28;20058;-46
2022/12/24 00:51:12;;;;;;;22.05;3.20;;;14.10;54.30;;;;;;4916935;28;20058;-45
2022/12/24 00:53:39;;;;;;;18.58;3.00;;;14.10;54.30;;;;;;4913589;28;20055;-45
2022/12/24 00:56:09;;;;;;;19.83;3.42;;;14.10;54.50;;;;;;4916246;28;20051;-47
2022/12/24 00:58:36;;;;;;;12.85;2.83;;;14.10;54.50;;;;;;4915695;28;20515;-44
2022/12/24 01:01:04;;;;;;;17.73;3.22;;;14.10;54.60;;;;;;4920327;28;20059;-44
2022/12/24 01:03:35;;;;;;;12.95;2.35;;;14.10;55.20;;;;;;4915938;28;20056;-47
2022/12/24 01:06:01;;;;;;;24.38;3.00;;;14.10;54.80;;;;;;4917147;28;20055;-49
2022/12/24 01:08:30;;;;;;;17.77;3.15;;;14.10;54.80;;;;;;4916283;28;20947;-46
2022/12/24 01:10:57;;;;;;;18.70;2.78;;;14.10;54.80;;;;;;4914774;28;20637;-46
2022/12/24 01:13:26;;;;;;;12.63;2.17;;;14.10;54.80;;;;;;4916460;28;20483;-45
2022/12/24 01:15:53;;;;;;;17.85;3.28;;;14.10;54.80;;;;;;4920833;28;20138;-44
2022/12/24 01:18:21;;;;;;;14.00;2.60;;;14.10;55.00;;;;;;4913674;28;20638;-45
2022/12/24 01:20:56;;;;;;;18.05;2.88;;;14.10;55.40;;;;;;4914589;28;20062;-44
2022/12/24 01:23:23;;;;;;;16.10;2.70;;;14.10;55.10;;;;;;4914251;28;20075;-44
2022/12/24 01:25:51;;;;;;;16.60;2.92;;;14.10;55.10;;;;;;4918758;28;20580;-48
2022/12/24 01:28:18;;;;;;;23.50;3.70;;;14.10;55.10;;;;;;4919730;28;20044;-47
2022/12/24 01:30:47;;;;;;;14.18;2.25;;;14.10;55.00;;;;;;4921585;28;20060;-45
2022/12/24 01:33:15;;;;;;;13.73;2.72;;;14.10;55.10;;;;;;4917960;28;20510;-45
2022/12/24 01:35:42;;;;;;;14.90;2.65;;;14.10;55.10;;;;;;4914051;28;20067;-49
2022/12/24 01:38:11;;;;;;;13.43;2.42;;;14.10;55.10;;;;;;4920128;28;20059;-49
2022/12/24 01:43:27;;;;;;;15.93;2.60;;;14.10;55.20;;;;;;4920670;28;20063;-46
2022/12/24 01:45:58;;;;;;;22.17;3.13;;;14.10;55.10;;;;;;4916983;28;20051;-46
2022/12/24 01:48:37;;;;;;;15.77;3.05;;;14.10;55.10;;;;;;4914852;28;20048;-47
2022/12/24 01:51:12;;;;;;;25.45;3.15;;;14.10;55.10;;;;;;4923317;28;20791;-44
2022/12/24 01:53:42;;;;;;;23.60;3.70;;;14.10;55.10;;;;;;4914867;28;20422;-45
2022/12/24 01:56:11;;;;;;;14.63;2.85;;;14.10;55.10;;;;;;4916328;28;20053;-47
2022/12/24 01:58:40;;;;;;;16.05;3.05;;;14.10;55.20;;;;;;4915058;28;20048;-43
2022/12/24 02:01:09;;;;;;;15.00;2.70;;;14.10;55.20;;;;;;4913318;28;20070;-46
2022/12/24 02:03:37;;;;;;;21.25;3.30;;;14.10;55.10;;;;;;4914388;28;20062;-44
2022/12/24 02:06:05;;;;;;;22.65;3.47;;;14.10;55.20;;;;;;4913072;28;20063;-46
2022/12/24 02:08:39;;;;;;;13.27;2.55;;;14.10;55.20;;;;;;4914657;28;20062;-45
2022/12/24 02:11:11;;;;;;;16.17;3.15;;;14.10;55.20;;;;;;4921869;28;20492;-44
2022/12/24 02:13:39;;;;;;;18.52;2.55;;;14.10;55.20;;;;;;4917658;28;20056;-41
2022/12/24 02:16:18;;;;;;;14.35;2.90;;;14.10;55.20;;;;;;4921242;28;20067;-46
2022/12/24 02:18:54;;;;;;;16.88;2.75;;;14.10;55.20;;;;;;4918379;28;20533;-47
2022/12/24 02:21:44;;;;;;;22.40;3.15;;;14.10;55.00;;;;;;4916884;28;20064;-41
2022/12/24 02:24:42;;;;;;;22.02;3.20;;;14.10;55.00;;;;;;4916485;28;20051;-44
2022/12/24 02:27:25;;;;;;;13.23;2.42;;;14.10;54.80;;;;;;4916564;28;20063;-45
2022/12/24 02:30:04;;;;;;;16.20;3.05;;;14.10;55.00;;;;;;4916099;28;20066;-42
2022/12/24 02:32:39;;;;;;;10.60;1.95;;;14.10;54.90;;;;;;4924121;28;20052;-46
2022/12/24 02:35:12;;;;;;;18.52;2.63;;;14.10;55.00;;;;;;4920455;28;20055;-44
2022/12/24 02:37:44;;;;;;;18.73;3.03;;;14.00;55.00;;;;;;4913271;28;20399;-46
2022/12/24 02:40:15;;;;;;;17.45;2.80;;;14.00;55.10;;;;;;4914689;28;20533;-45
2022/12/24 02:42:46;;;;;;;14.57;2.60;;;14.00;55.00;;;;;;4921470;28;20067;-46
2022/12/24 02:45:18;;;;;;;15.75;2.50;;;14.00;55.20;;;;;;4916594;28;20056;-48
2022/12/24 02:47:46;;;;;;;13.95;2.60;;;14.00;55.20;;;;;;4915849;28;20094;-47
2022/12/24 02:50:15;;;;;;;15.35;2.50;;;14.00;55.20;;;;;;4918845;28;20048;-46
2022/12/24 02:52:44;;;;;;;16.05;2.85;;;14.00;55.20;;;;;;4922706;28;20068;-43
2022/12/24 02:55:14;;;;;;;9.50;2.00;;;14.00;55.20;;;;;;4917153;28;20055;-45
2022/12/24 02:58:08;;;;;;;15.30;2.28;;;14.00;55.30;;;;;;4918298;28;20059;-47
2022/12/24 03:00:44;;;;;;;18.80;2.90;;;14.00;55.40;;;;;;4921715;28;20054;-45
2022/12/24 03:03:27;;;;;;;14.25;2.65;;;13.90;55.30;;;;;;4921415;28;20055;-46
2022/12/24 03:06:05;;;;;;;17.88;3.03;;;13.90;55.40;;;;;;4916003;28;20485;-44
2022/12/24 03:08:43;;;;;;;13.80;2.55;;;13.90;55.50;;;;;;4914448;28;20044;-45
2022/12/24 03:11:14;;;;;;;14.73;2.80;;;14.00;55.50;;;;;;4919560;28;20691;-43
2022/12/24 03:13:42;;;;;;;21.63;2.42;;;13.90;55.60;;;;;;4919416;28;20058;-45
2022/12/24 03:16:13;;;;;;;15.98;2.38;;;14.00;55.60;;;;;;4919361;28;20056;-46
2022/12/24 03:18:45;;;;;;;12.07;2.30;;;13.90;55.60;;;;;;4920094;28;20047;-50
2022/12/24 03:21:17;;;;;;;13.20;2.45;;;13.90;55.70;;;;;;4914752;28;20060;-46
2022/12/24 03:23:45;;;;;;;13.48;2.40;;;13.90;55.70;;;;;;4917706;28;20075;-43
2022/12/24 03:26:15;;;;;;;13.90;2.55;;;13.90;55.80;;;;;;4920893;28;20387;-46
2022/12/24 03:28:43;;;;;;;13.70;2.28;;;13.90;55.90;;;;;;4916031;28;20060;-46
2022/12/24 03:31:13;;;;;;;14.95;2.50;;;13.90;56.00;;;;;;4918683;28;20506;-45
2022/12/24 03:33:40;;;;;;;14.18;2.10;;;13.90;56.20;;;;;;4917973;28;20055;-49
2022/12/24 03:36:09;;;;;;;19.20;3.28;;;14.00;56.40;;;;;;4916277;28;20055;-45
2022/12/24 03:38:37;;;;;;;13.63;2.45;;;13.90;56.50;;;;;;4914439;28;20499;-43
2022/12/24 03:41:05;;;;;;;15.10;2.95;;;14.00;56.70;;;;;;4920434;28;20451;-45
2022/12/24 03:43:32;;;;;;;13.95;2.20;;;13.90;56.90;;;;;;4922057;28;20416;-45
2022/12/24 03:46:04;;;;;;;9.32;1.95;;;13.90;57.00;;;;;;4919850;28;20497;-43
2022/12/24 03:48:35;;;;;;;13.25;2.22;;;13.90;57.20;;;;;;4917564;28;20055;-44
2022/12/24 03:51:03;;;;;;;7.97;1.95;;;13.90;57.30;;;;;;4915055;28;20051;-45
2022/12/24 03:53:30;;;;;;;9.98;2.30;;;13.90;57.50;;;;;;4915756;28;20066;-43
2022/12/24 03:55:58;;;;;;;9.02;2.10;;;13.90;57.50;;;;;;4923365;28;20420;-45
2022/12/24 03:58:25;;;;;;;24.73;3.72;;;13.90;57.60;;;;;;4919455;28;20515;-45
2022/12/24 04:00:53;;;;;;;13.57;2.72;;;13.80;57.60;;;;;;4920168;28;20055;-43
2022/12/24 04:03:20;;;;;;;13.27;2.35;;;13.80;57.90;;;;;;4916083;28;20056;-43
2022/12/24 04:05:59;;;;;;;7.93;1.80;;;13.80;57.90;;;;;;4913821;28;20059;-44
2022/12/24 04:08:26;;;;;;;14.50;2.42;;;13.90;58.00;;;;;;4914448;28;20059;-44
2022/12/24 04:10:53;;;;;;;13.63;2.47;;;13.90;58.10;;;;;;4915926;28;20498;-45
2022/12/24 04:13:20;;;;;;;12.98;2.72;;;13.80;58.10;;;;;;4915412;28;20064;-46
2022/12/24 04:15:57;;;;;;;7.90;1.65;;;13.90;58.20;;;;;;4916168;28;20056;-48
2022/12/24 04:18:24;;;;;;;10.88;2.00;;;13.90;58.30;;;;;;4916099;28;20491;-44
2022/12/24 04:20:53;;;;;;;6.70;1.73;;;13.90;58.20;;;;;;4916942;28;20043;-45
2022/12/24 04:23:20;;;;;;;13.80;2.55;;;13.90;58.30;;;;;;4914389;28;20052;-44
2022/12/24 04:25:47;;;;;;;18.58;3.17;;;13.90;58.40;;;;;;4922816;28;20500;-44
2022/12/24 04:28:16;;;;;;;20.98;2.90;;;13.90;58.60;;;;;;4917158;28;20088;-48
2022/12/24 04:30:43;;;;;;;16.17;2.90;;;13.80;59.00;;;;;;4915780;28;20051;-50
2022/12/24 04:33:11;;;;;;;10.20;2.63;;;13.70;59.40;;;;;;4916486;28;20060;-47
2022/12/24 04:35:40;;;;;;;16.85;2.90;;;13.50;59.60;;;;;;4914777;28;21196;-45
2022/12/24 04:38:09;;;;;;;18.10;2.97;;;13.40;59.90;;;;;;4915026;28;20051;-47
2022/12/24 04:40:36;;;;;;;12.70;2.80;;;13.30;60.50;;;;;;4915763;28;20396;-48
2022/12/24 04:43:03;;;;;;;8.85;1.85;;;13.30;60.70;;;;;;4918773;28;20067;-50
2022/12/24 04:45:31;;;;;;;7.32;1.30;;;13.20;61.10;;;;;;4920021;28;20060;-48
2022/12/24 04:47:59;;;;;;;8.15;1.50;;;13.20;61.20;;;;;;4915951;28;20500;-47
2022/12/24 04:50:26;;;;;;;8.25;1.92;;;13.10;61.10;;;;;;4914385;28;20055;-50
2022/12/24 04:52:53;;;;;;;9.13;1.67;;;13.20;61.10;;;;;;4915006;28;20059;-46
2022/12/24 04:55:22;;;;;;;5.72;1.20;;;13.10;61.00;;;;;;4913491;28;20067;-47
2022/12/24 04:57:49;;;;;;;9.07;1.83;;;13.10;61.10;;;;;;4919157;28;20393;-46
2022/12/24 05:00:16;;;;;;;5.55;1.20;;;13.10;61.00;;;;;;4917139;28;20071;-44
2022/12/24 05:02:44;;;;;;;5.63;1.17;;;13.10;61.00;;;;;;4920879;28;20064;-44
2022/12/24 05:05:11;;;;;;;2.92;0.52;;;13.10;61.10;;;;;;4921561;29;20062;-45
2022/12/24 05:07:38;;;;;;;7.45;1.33;;;13.10;61.00;;;;;;4924460;28;20578;-46
2022/12/24 05:10:07;;;;;;;3.97;0.95;;;13.10;60.90;;;;;;4914997;28;20066;-50
2022/12/24 05:12:35;;;;;;;2.10;0.80;;;13.10;60.80;;;;;;4917703;28;20060;-44
2022/12/24 05:15:03;;;;;;;4.28;0.90;;;13.10;60.80;;;;;;4922294;28;20063;-49
2022/12/24 05:17:30;;;;;;;2.70;0.65;;;13.10;60.80;;;;;;4919618;28;20051;-43
2022/12/24 05:19:57;;;;;;;4.47;0.60;;;13.10;60.80;;;;;;4922588;28;20055;-48
2022/12/24 05:27:56;;;;;;;4.70;1.13;;;13.20;60.70;;;;;;4926403;28;20051;-44
2022/12/24 05:30:23;;;;;;;4.22;0.98;;;13.10;60.70;;;;;;4920712;28;20048;-48
2022/12/24 05:32:50;;;;;;;4.22;1.08;;;13.10;60.60;;;;;;4922057;28;20055;-47
2022/12/24 05:35:17;;;;;;;9.55;2.00;;;13.10;60.70;;;;;;4920571;28;20060;-46
2022/12/24 05:37:45;;;;;;;13.05;1.80;;;13.10;60.70;;;;;;4920772;29;20058;-43
2022/12/24 05:40:13;;;;;;;8.75;1.88;;;13.10;60.70;;;;;;4921066;28;20055;-44
2022/12/24 05:42:40;;;;;;;5.80;1.42;;;13.10;60.60;;;;;;4921989;28;20058;-44
2022/12/24 05:45:10;;;;;;;9.90;1.45;;;13.10;60.60;;;;;;4923664;28;20059;-44
2022/12/24 05:47:37;;;;;;;8.43;1.75;;;13.10;60.60;;;;;;4925145;28;20082;-47
2022/12/24 05:50:05;;;;;;;9.25;1.92;;;13.20;60.60;;;;;;4925072;28;20139;-48
2022/12/24 05:52:32;;;;;;;8.18;1.77;;;13.10;60.60;;;;;;4956679;28;20056;-50
2022/12/24 05:54:59;;;;;;;11.30;1.90;;;13.10;60.60;;;;;;5017086;28;20060;-44
2022/12/24 05:57:26;;;;;;;11.25;1.83;;;13.10;60.60;;;;;;5020215;28;20053;-45
2022/12/24 05:59:54;;;;;;;9.15;2.08;;;13.10;60.60;;;;;;5021298;28;20504;-47
2022/12/24 06:02:22;;;;;;;8.52;1.48;;;13.10;60.60;;;;;;5021448;28;20060;-50
2022/12/24 06:04:49;;;;;;;8.68;1.60;;;13.10;60.80;;;;;;5018743;28;20489;-47
2022/12/24 06:07:17;;;;;;;7.22;2.05;;;13.10;60.70;;;;;;5021032;28;20080;-44
2022/12/24 06:09:44;;;;;;;7.60;1.30;;;13.20;60.80;;;;;;5023115;28;20045;-44
2022/12/24 06:12:11;;;;;;;8.40;1.38;;;13.10;60.80;;;;;;5024147;28;21551;-46
2022/12/24 06:14:38;;;;;;;10.48;2.10;;;13.20;60.80;;;;;;5023807;28;20060;-46
2022/12/24 06:17:06;;;;;;;11.70;2.35;;;13.10;60.80;;;;;;5021886;28;20123;-45
2022/12/24 06:19:34;;;;;;;6.65;1.20;;;13.10;60.80;;;;;;5023178;28;20068;-44
2022/12/24 06:22:01;;;;;;;6.65;1.90;;;13.10;60.80;;;;;;5021637;28;20405;-46
2022/12/24 06:24:29;;;;;;;9.95;1.35;;;13.20;60.80;;;;;;5020786;28;20421;-45
2022/12/24 06:26:56;;;;;;;6.78;1.42;;;13.10;60.80;;;;;;5017673;28;20048;-46
2022/12/24 06:29:23;;;;;;;5.82;1.10;;;13.20;60.90;;;;;;5022739;28;20049;-46
2022/12/24 06:31:50;;;;;;;7.82;1.20;;;13.20;60.90;;;;;;5023636;28;20045;-46
2022/12/24 06:34:18;;;;;;;5.68;1.10;;;13.20;60.90;;;;;;5021388;28;20049;-44
2022/12/24 06:36:46;;;;;;;7.13;0.98;;;13.20;60.90;;;;;;5020763;28;20379;-45
2022/12/24 06:39:13;;;;;;;5.00;1.17;;;13.20;60.80;;;;;;5017208;28;20054;-48
2022/12/24 06:41:41;;;;;;;8.48;1.90;;;13.20;60.90;;;;;;5016630;28;20498;-47
2022/12/24 06:44:09;;;;;;;8.68;1.25;;;13.20;60.80;;;;;;5020961;28;20061;-47
2022/12/24 06:46:36;;;;;;;7.22;1.35;;;13.30;60.90;;;;;;5022437;28;20053;-45
2022/12/24 06:49:03;;;;;;;11.65;1.63;;;13.20;60.80;;;;;;5017514;28;20049;-47
2022/12/24 06:51:30;;;;;;;7.35;1.50;;;13.30;60.80;;;;;;5019610;28;20054;-47
2022/12/24 06:53:59;;;;;;;7.10;1.45;;;13.20;60.70;;;;;;5019230;28;20053;-45
2022/12/24 06:56:26;;;;;;;10.63;1.92;;;13.20;60.70;;;;;;5016706;28;20057;-45
2022/12/24 06:58:55;;;;;;;8.48;1.40;;;13.30;60.70;;;;;;5021660;28;20061;-45
2022/12/24 07:01:24;;;;;;;11.85;2.40;;;13.30;60.70;;;;;;5022887;28;20045;-44
2022/12/24 07:03:52;;;;;;;12.80;1.83;;;13.30;60.70;;;;;;5011619;28;20053;-45
2022/12/24 07:06:24;;;;;;;11.75;2.00;;;13.30;60.70;;;;;;5019780;28;20053;-45
2022/12/24 07:08:51;;;;;;;21.88;5.63;;;13.30;60.70;;;;;;5018715;28;20057;-42
2022/12/24 07:11:21;;;;;;;12.98;4.97;;;13.30;60.70;;;;;;5021040;28;20053;-47
2022/12/24 07:13:49;;;;;;;20.13;5.22;;;13.30;60.70;;;;;;5020733;28;20386;-45
2022/12/24 07:16:17;;;;;;;14.15;4.18;;;13.30;60.60;;;;;;5019103;28;20064;-44
2022/12/24 07:18:45;;;;;;;14.63;4.75;;;13.30;60.60;;;;;;5018051;28;20080;-45
2022/12/24 07:21:13;;;;;;;19.58;9.00;;;13.30;60.70;;;;;;5021382;28;20053;-46
2022/12/24 07:23:41;;;;;;;22.88;9.57;;;13.30;60.70;;;;;;5018339;28;20515;-46
2022/12/24 07:26:10;;;;;;;25.55;12.07;;;13.30;60.60;;;;;;5015154;28;20511;-43
2022/12/24 07:28:39;;;;;;;17.77;8.02;;;13.30;60.50;;;;;;5019919;28;20057;-48
2022/12/24 07:31:07;;;;;;;30.88;15.68;;;13.30;60.50;;;;;;5018363;28;20093;-46
2022/12/24 07:33:35;;;;;;;24.95;8.15;;;13.30;60.30;;;;;;5017195;28;20053;-45
2022/12/24 07:36:05;;;;;;;16.15;5.72;;;13.40;60.30;;;;;;5015387;28;20533;-47
2022/12/24 07:38:33;;;;;;;14.15;4.47;;;13.30;60.10;;;;;;5014905;28;20060;-47
2022/12/24 07:41:01;;;;;;;16.90;3.95;;;13.30;60.10;;;;;;5021118;28;20049;-45
2022/12/24 07:43:29;;;;;;;13.55;4.38;;;13.30;60.00;;;;;;5018430;28;20049;-42
2022/12/24 07:45:58;;;;;;;18.60;4.57;;;13.30;60.00;;;;;;5013007;28;20057;-43
2022/12/24 07:48:26;;;;;;;15.68;3.75;;;13.30;60.00;;;;;;5017357;28;20060;-46
2022/12/24 07:50:54;;;;;;;15.63;4.22;;;13.30;60.00;;;;;;5017644;28;20052;-48
2022/12/24 07:53:21;;;;;;;14.13;3.25;;;13.40;60.00;;;;;;5018625;28;20075;-48
2022/12/24 07:55:49;;;;;;;21.80;6.05;;;13.40;60.00;;;;;;5016530;28;20540;-46
2022/12/24 07:58:17;;;;;;;13.10;4.00;;;13.30;60.00;;;;;;5015294;28;20053;-45
2022/12/24 08:00:44;;;;;;;24.25;4.25;;;13.30;60.00;;;;;;5017700;28;20057;-45
2022/12/24 08:03:17;;;;;;;17.20;3.60;;;13.30;59.90;;;;;;5017237;28;20417;-42
2022/12/24 08:05:44;;;;;;;14.88;3.90;;;13.30;59.90;;;;;;5012746;28;20053;-43
2022/12/24 08:08:11;;;;;;;13.82;3.42;;;13.40;59.90;;;;;;5019151;28;20053;-43
2022/12/24 08:10:39;;;;;;;20.13;3.58;;;13.40;59.90;;;;;;5017666;28;20052;-44
2022/12/24 08:13:06;;;;;;;20.85;3.92;;;13.40;59.80;;;;;;5016593;28;20049;-49
2022/12/24 08:15:34;;;;;;;12.82;2.75;;;13.40;59.90;;;;;;5014682;28;20049;-49
2022/12/24 08:18:01;;;;;;;17.30;3.50;;;13.40;59.90;;;;;;5018367;28;20056;-43
2022/12/24 08:20:29;;;;;;;16.92;3.88;;;13.40;59.80;;;;;;5011891;28;20053;-44
2022/12/24 08:22:57;;;;;;;20.50;4.75;;;13.40;59.80;;;;;;5019142;28;20049;-50
2022/12/24 08:25:24;;;;;;;21.67;5.78;;;13.40;59.90;;;;;;5017228;28;20120;-44
2022/12/24 08:27:51;;;;;;;18.73;5.07;;;13.40;59.70;;;;;;5021198;28;20072;-45
2022/12/24 08:30:18;;;;;;;22.55;5.10;;;13.40;59.70;;;;;;5018807;28;20053;-47
2022/12/24 08:32:45;;;;;;;19.70;3.97;;;13.50;59.70;;;;;;5019039;28;20436;-47
2022/12/24 08:35:13;;;;;;;19.95;4.30;;;13.40;59.60;;;;;;5019873;28;20046;-43
2022/12/24 08:37:41;;;;;;;28.08;5.32;;;13.40;59.50;;;;;;5019412;28;20041;-42
2022/12/24 08:40:10;;;;;;;19.90;5.22;;;13.50;59.50;;;;;;5014373;28;20068;-48
2022/12/24 08:42:37;;;;;;;17.40;3.80;;;13.50;59.40;;;;;;5020275;28;20046;-43
2022/12/24 08:45:05;;;;;;;13.55;4.00;;;13.50;59.40;;;;;;5018688;28;20057;-44
2022/12/24 08:47:32;;;;;;;20.15;4.18;;;13.50;59.30;;;;;;5017718;28;20064;-45
2022/12/24 08:49:59;;;;;;;24.27;4.70;;;13.50;59.20;;;;;;5020965;28;20053;-43
2022/12/24 08:52:26;;;;;;;21.20;4.93;;;13.50;59.20;;;;;;5018037;28;20061;-42
2022/12/24 08:54:55;;;;;;;20.02;4.32;;;13.50;59.20;;;;;;5012203;28;20060;-44
2022/12/24 08:57:22;;;;;;;24.05;4.80;;;13.50;59.30;;;;;;5016770;28;20405;-44
2022/12/24 08:59:50;;;;;;;19.05;4.90;;;13.50;59.70;;;;;;5016309;28;20056;-42
2022/12/24 09:02:17;;;;;;;25.02;3.85;;;13.50;59.20;;;;;;5016475;28;20052;-41
2022/12/24 09:04:44;;;;;;;22.10;4.40;;;13.50;59.20;;;;;;5013179;28;20052;-42
2022/12/24 09:07:12;;;;;;;14.07;3.63;;;13.50;59.20;;;;;;5016774;28;20068;-47
2022/12/24 09:09:39;;;;;;;19.17;3.95;;;13.60;59.20;;;;;;5015909;28;20068;-44
2022/12/24 09:12:08;;;;;;;18.77;4.63;;;13.60;59.20;;;;;;5014753;28;20060;-47
2022/12/24 09:14:36;;;;;;;20.58;4.32;;;13.60;59.20;;;;;;5017986;28;20054;-44
2022/12/24 09:17:03;;;;;;;17.55;4.22;;;13.70;59.20;;;;;;5018777;28;20057;-46
2022/12/24 09:19:30;;;;;;;15.85;4.35;;;13.70;59.20;;;;;;5018544;28;20977;-45
2022/12/24 09:21:57;;;;;;;15.68;3.92;;;13.70;59.10;;;;;;5019243;28;20489;-43
2022/12/24 09:24:25;;;;;;;13.77;3.05;;;13.70;59.10;;;;;;5018005;28;20053;-46
2022/12/24 09:26:52;;;;;;;19.80;4.90;;;13.80;59.20;;;;;;5013959;28;20083;-46
2022/12/24 09:29:20;;;;;;;21.98;3.95;;;13.80;59.20;;;;;;5015683;28;20090;-42
2022/12/24 09:31:48;;;;;;;16.35;3.33;;;13.80;59.10;;;;;;5011227;28;20057;-48
2022/12/24 09:34:16;;;;;;;14.82;3.20;;;13.80;59.00;;;;;;5014659;28;20053;-44
2022/12/24 09:36:44;;;;;;;14.93;3.13;;;13.80;59.00;;;;;;5017327;28;20056;-43
2022/12/24 09:39:12;;;;;;;17.40;3.80;;;13.90;59.00;;;;;;5017441;28;20068;-43
2022/12/24 09:41:51;;;;;;;10.90;3.42;;;13.90;58.90;;;;;;5019219;28;20053;-48
2022/12/24 09:44:31;;;;;;;14.63;3.08;;;13.90;58.80;;;;;;5017067;28;20416;-49
2022/12/24 09:47:03;;;;;;;20.85;3.63;;;13.90;58.80;;;;;;5019983;28;20057;-46
2022/12/24 09:49:37;;;;;;;20.02;3.97;;;13.90;58.80;;;;;;5016327;28;20058;-46
2022/12/24 09:52:06;;;;;;;;;;;13.90;58.80;;;;;;5019888;28;20064;-43
2022/12/24 09:54:38;;;;;;;22.25;3.20;;;14.00;58.90;;;;;;5016827;28;19925;-47
2022/12/24 09:57:12;;;;;;;20.00;3.50;;;14.00;58.80;;;;;;5016397;28;20493;-43
2022/12/24 09:59:42;;;;;;;19.05;3.65;;;14.00;58.70;;;;;;5017274;28;20053;-43
2022/12/24 10:02:14;;;;;;;15.48;3.33;;;14.00;58.70;;;;;;5019447;28;20405;-46
2022/12/24 10:04:42;;;;;;;22.45;4.50;;;14.00;58.70;;;;;;5018714;28;20049;-47
2022/12/24 10:07:23;;;;;;;18.05;3.35;;;14.10;58.70;;;;;;5014280;28;20065;-46
2022/12/24 10:10:01;;;;;;;22.50;3.83;;;14.00;58.50;;;;;;5017467;28;20050;-45
2022/12/24 10:12:35;;;;;;;19.75;3.22;;;14.10;58.60;;;;;;5017654;28;20049;-47
2022/12/24 10:15:13;;;;;;;22.75;3.40;;;14.10;58.30;;;;;;5017024;28;20056;-46
2022/12/24 10:17:56;;;;;;;22.58;3.90;;;14.10;58.30;;;;;;5017503;28;20057;-46
2022/12/24 10:20:36;;;;;;;19.35;3.40;;;14.20;58.30;;;;;;5017043;28;20049;-45
2022/12/24 10:23:11;;;;;;;20.85;3.28;;;14.20;58.20;;;;;;5015473;28;20045;-47
2022/12/24 10:25:45;;;;;;;21.58;3.25;;;14.20;58.10;;;;;;5017464;28;20053;-45
2022/12/24 10:28:16;;;;;;;19.35;4.18;;;14.20;58.00;;;;;;5017322;28;20045;-44
2022/12/24 10:30:48;;;;;;;17.92;3.63;;;14.20;57.80;;;;;;5013219;28;20405;-45
2022/12/24 10:33:19;;;;;;;15.40;3.03;;;14.20;57.70;;;;;;5022553;28;20386;-47
2022/12/24 10:35:51;;;;;;;26.33;5.55;;;14.20;58.00;;;;;;5023558;28;20049;-43
2022/12/24 10:38:19;;;;;;;22.42;4.07;;;14.20;57.70;;;;;;5020354;28;20065;-48
2022/12/24 10:40:48;;;;;;;20.67;3.53;;;14.30;57.70;;;;;;5018744;28;20060;-45
2022/12/24 10:43:18;;;;;;;24.17;4.70;;;14.30;57.50;;;;;;5020277;28;20056;-46
2022/12/24 10:45:50;;;;;;;26.33;4.13;;;14.30;57.40;;;;;;5020320;28;20053;-44
2022/12/24 10:48:23;;;;;;;16.08;3.28;;;14.30;57.40;;;;;;5020307;28;20437;-42
2022/12/24 10:50:58;;;;;;;24.98;7.03;;;14.30;57.40;;;;;;5021728;28;20069;-44
2022/12/24 10:53:48;;;;;;;19.38;4.00;;;14.30;57.40;;;;;;5018120;28;20053;-46
2022/12/24 10:56:18;;;;;;;21.65;3.95;;;14.30;57.20;;;;;;5020170;28;20075;-43
2022/12/24 10:58:51;;;;;;;24.17;3.72;;;14.30;57.10;;;;;;5018597;28;20501;-45
2022/12/24 11:01:20;;;;;;;22.25;4.65;;;14.30;57.00;;;;;;5015298;28;20049;-44
2022/12/24 11:04:00;;;;;;;19.33;3.38;;;14.30;56.90;;;;;;5017317;28;20057;-47
2022/12/24 11:06:28;;;;;;;19.13;4.68;;;14.30;56.90;;;;;;5013481;28;20135;-42
2022/12/24 11:09:20;;;;;;;17.88;4.32;;;14.30;57.10;;;;;;5019158;28;20057;-45
2022/12/24 11:11:47;;;;;;;19.67;4.30;;;14.30;57.00;;;;;;5022813;28;20056;-47
2022/12/24 11:14:17;;;;;;;28.98;4.10;;;14.40;57.20;;;;;;5021735;28;20053;-47
2022/12/24 11:16:52;;;;;;;20.50;3.45;;;14.30;56.90;;;;;;5022941;28;20394;-43
2022/12/24 11:19:26;;;;;;;18.02;3.65;;;14.30;56.80;;;;;;5017373;28;20060;-48
2022/12/24 11:22:01;;;;;;;27.17;3.80;;;14.30;56.70;;;;;;5019913;28;20053;-44
2022/12/24 11:24:33;;;;;;;30.67;3.88;;;14.30;56.70;;;;;;5021608;28;20060;-45
2022/12/24 11:27:29;;;;;;;18.08;3.63;;;14.40;56.80;;;;;;5023518;28;20053;-42
2022/12/24 11:30:28;;;;;;;19.92;3.83;;;14.30;56.70;;;;;;5022706;28;20056;-47
2022/12/24 11:33:19;;;;;;;24.05;3.58;;;14.30;56.80;;;;;;5023837;28;20056;-46
2022/12/24 11:35:50;;;;;;;25.50;4.35;;;14.40;56.90;;;;;;5017415;28;20046;-47
2022/12/24 11:38:22;;;;;;;16.33;3.47;;;14.40;56.80;;;;;;5024389;28;20381;-46
2022/12/24 11:40:58;;;;;;;22.33;4.00;;;14.40;56.80;;;;;;5022795;28;20057;-47
2022/12/24 11:43:43;;;;;;;16.15;3.42;;;14.40;56.80;;;;;;5019435;28;20532;-45
2022/12/24 11:46:22;;;;;;;21.25;3.60;;;14.40;56.80;;;;;;5023712;28;20080;-43
2022/12/24 11:49:05;;;;;;;22.15;4.03;;;14.40;56.70;;;;;;5022756;28;20529;-43
2022/12/24 11:51:33;;;;;;;21.30;3.92;;;14.40;56.70;;;;;;5019927;28;20054;-44
2022/12/24 11:54:09;;;;;;;36.15;12.23;;;14.40;56.80;;;;;;5017408;28;20046;-44
2022/12/24 11:56:40;;;;;;;30.05;5.68;;;14.40;56.80;;;;;;5023826;28;20398;-45
2022/12/24 11:59:18;;;;;;;23.52;4.32;;;14.40;56.80;;;;;;5021866;28;20421;-45
2022/12/24 12:01:53;;;;;;;25.00;4.07;;;14.40;56.80;;;;;;5017044;28;20053;-44
2022/12/24 12:04:25;;;;;;;22.23;3.55;;;14.50;56.70;;;;;;5016013;28;20061;-44
2022/12/24 12:06:57;;;;;;;27.58;4.20;;;14.50;56.60;;;;;;5019413;28;20083;-45
2022/12/24 12:09:28;;;;;;;21.98;4.05;;;14.50;56.60;;;;;;5021120;28;20054;-44
2022/12/24 12:12:00;;;;;;;16.13;3.70;;;14.50;56.60;;;;;;5021692;28;20061;-45
2022/12/24 12:14:32;;;;;;;16.73;3.13;;;14.50;56.70;;;;;;5022990;28;20065;-46
2022/12/24 12:17:08;;;;;;;20.33;3.78;;;14.50;56.60;;;;;;5018140;28;20084;-48
2022/12/24 12:19:43;;;;;;;20.50;4.13;;;14.50;56.60;;;;;;5022079;28;20064;-45
2022/12/24 12:22:20;;;;;;;20.80;3.17;;;14.50;57.10;;;;;;5022571;28;20140;-46
2022/12/24 12:24:51;;;;;;;22.45;3.92;;;14.50;56.60;;;;;;5020877;28;20509;-44
2022/12/24 12:27:25;;;;;;;20.75;3.50;;;14.50;56.50;;;;;;5020638;28;20046;-47
2022/12/24 12:29:59;;;;;;;19.52;3.65;;;14.50;56.40;;;;;;5021578;28;20053;-43
2022/12/24 12:32:35;;;;;;;17.00;3.92;;;14.50;56.40;;;;;;5021165;28;21316;-43
2022/12/24 12:35:13;;;;;;;21.35;4.28;;;14.60;56.40;;;;;;5019271;28;20287;-43
2022/12/24 12:37:44;;;;;;;19.58;3.83;;;14.60;56.50;;;;;;5021712;28;20087;-45
2022/12/24 12:40:14;;;;;;;17.52;3.80;;;14.60;56.40;;;;;;5020236;28;20056;-43
2022/12/24 12:42:46;;;;;;;17.15;3.97;;;14.50;56.40;;;;;;5021256;28;20050;-47
2022/12/24 12:45:38;;;;;;;20.52;4.43;;;14.60;56.50;;;;;;5021487;28;20485;-45
2022/12/24 12:48:19;;;;;;;21.85;3.63;;;14.60;56.50;;;;;;5021683;28;20057;-43
2022/12/24 12:50:54;;;;;;;21.58;4.05;;;14.60;56.50;;;;;;5023116;28;20419;-43
2022/12/24 12:53:33;;;;;;;21.20;4.05;;;14.60;56.50;;;;;;5021772;28;20524;-43
2022/12/24 12:56:11;;;;;;;14.98;3.28;;;14.60;56.60;;;;;;5021796;28;20580;-45
2022/12/24 12:58:42;;;;;;;22.85;4.05;;;14.60;56.60;;;;;;5020183;28;20057;-46
2022/12/24 13:01:16;;;;;;;28.77;4.53;;;14.60;56.60;;;;;;5022471;28;20825;-44
2022/12/24 13:04:19;;;;;;;18.15;3.20;;;14.60;56.40;;;;;;5019967;28;20053;-42